Sandy, OR (97055)

8:09 PM PDT on September 02, 2015 (GMT -0700)
Davis St - Gary St. | | Change Station
CLOSE
Current Station
Personal Weather Station
Location: Sandy, OR
Elevation: 1037 ft
Nearby Weather Stations

Elev 1037 ft 45.39 °N, 122.25 °W | Updated 13 minutes ago

Mostly Cloudy
Mostly Cloudy
57.2 °F
Feels Like 57.2 °F
N
0.0
Wind Variable Wind from WSW

Today
High -- | Low -- °F
--% Chance of Precip.
Yesterday
High -- | Low -- °F
Precip. -- in
6:31 AM 7:44 PM
Waning Gibbous, 74% visible
Pressure 29.93 in
Visibility 10.0 miles
Clouds Scattered Clouds 4500 ft
Mostly Cloudy 5500 ft
Mostly Cloudy 7000 ft
Dew Point 51 °F
Humidity 79%
Rainfall 0.09 in
Snow Depth Not available.
UV 0 out of 12
Pollen .50 out of 12
Air Quality Not available.
Flu Activity Not available.
METAR KTTD 030253Z 33010G18KT 300V010 10SM SCT045 BKN055 BKN070 17/12 A2993 RMK AO2 RAB0156E28 SLP134 P0001 60002 T01720117 53007
Pressure 29.93 in
Visibility 10.0 miles
Clouds Scattered Clouds 4500 ft
Mostly Cloudy 5500 ft
Mostly Cloudy 7000 ft
Dew Point 51 °F
Humidity 79%
Rainfall 0.09 in
Snow Depth Not available.
UV 0 out of 12
Pollen .50 out of 12
Air Quality Not available.
Flu Activity Not available.
METAR KTTD 030253Z 33010G18KT 300V010 10SM SCT045 BKN055 BKN070 17/12 A2993 RMK AO2 RAB0156E28 SLP134 P0001 60002 T01720117 53007

10-Day Weather Forecast

×

Almanac

Astronomy

Sep. 02, 2015 Rise Set
Actual Time
Civil Twilight
Nautical Twilight
Astronomical Twilight
Moon
Length of Visible Light
Length of Day
Tomorrow will be .
, % of the Moon is Illuminated

Today's Extremes

State Highs State Lows

Community

WunderPhotos

Upload Photos

1,851,892 photos uploaded!

WunderBlogs® & News

Nearby

Air Quality

  Air Quality AQ Index Pollutant
Not available.

Snow Depth

Station Depth Elevation

Earthquake Activity

City Distance Mag. Time & Date
Minimum magnitude displayed is 2.5.

Coastal Water Temperatures

Place Temperature

Stations

Nearby Weather Stations

Station Location Temp. Windchill Dew Point Humidity Wind Precip. Elev Updated Type